Bedford, IN (47421)

5:32 PM EST on December 04, 2016 (GMT -0500)
Edgewood Addition | | Change Station

Elev 666 ft 38.86 °N, 86.50 °W | Updated 7 seconds ago

Light Rain
Light Rain Mist
42.0 °F
Feels Like 42 °F
N
0.0
Wind Variable Wind from SW
Gusts 5.0 mph

Today
High -- | Low -- °F
--% Chance of Precip.
Yesterday
High -- | Low -- °F
Precip. -- in
Pressure 29.89 in
Visibility 4.0 miles
Clouds Overcast 500 ft
Windchill 42 °F
Dew Point 41 °F
Humidity 97%
Rainfall 0.23 in
Snow Depth Not available.
7:48 AM 5:23 PM
Waxing Crescent, 26% visible
SPECI KBMG 042204Z 20004KT 4SM -RA BR OVC005 06/04 A2989 RMK AO2 P0001 T00560044
Pressure 29.89 in
Visibility 4.0 miles
Clouds Overcast 500 ft
Windchill 42 °F
Dew Point 41 °F
Humidity 97%
Rainfall 0.23 in
Snow Depth Not available.
7:48 AM 5:23 PM
Waxing Crescent, 26% visible
SPECI KBMG 042204Z 20004KT 4SM -RA BR OVC005 06/04 A2989 RMK AO2 P0001 T00560044

10-Day Weather Forecast

Almanac

Astronomy

Dec. 04, 2016 Rise Set
Actual Time
Civil Twilight
Nautical Twilight
Astronomical Twilight
Moon
Length of Visible Light
Length of Day
Tomorrow will be .
, % of the Moon is Illuminated

Today's Extremes

State Highs State Lows

Community

WunderPhotos

Upload Photos

1,955,685 photos uploaded!

WunderBlog® & News

Nearby

Air Quality

  Air Quality AQ Index Pollutant
Not available.

Snow Depth

Station Depth Elevation

Earthquake Activity

City Distance Mag. Time & Date
Minimum magnitude displayed is 2.5.

Coastal Water Temperatures

Place Temperature

Stations

Nearby Weather Stations

Station Location Temp. Windchill Dew Point Humidity Wind Precip. Elev Updated Type
                   

Watches & Warnings

There are currently no watches in effect.